Oakey, Australia
Current Conditions -  °F | °C
As of 7:00 PM on Sunday 26 Oct 2014 (Local Time) from YBOK Reporting Station
Clear Clear  
Wind Chill: 86°   Ceiling: Unl
Heat Index: 86°   Visibility: 6mi
Dew Point: 41°   Wind: 9mph
Humidity: 20%   Direction: 330°NNW
Pressure: 29.88"   Gusts: NA
Location:  27.43°S, 151.72°E
Report Text: YBOK 260900Z AUTO 33008KT 9999 // NCD 30/05 Q1012
Loading
Personal Weather Stations






























Interactive Weather Map
Tropical Storm Tracking
New forecast layout! Learn more

10-Day Weather Forecast

Advertisements
Track Severe Weather on mobile